SWA3111 KLAS-KONT
Flight info
| Callsign | SWA3111 |
|---|---|
| Flight time | 0h 33m |
| Altitude | 24000 |
| Route | RADYR2 SLVRR FEYLA JCKIE2 |
| Aircraft | B38M/M-SADE2E3GHIJ4J7P2RWZ/LB1D1 |
Departure
| Time | 2026-04-30 20:13 |
|---|---|
| Airport | Harry Reid International Airport (KLAS) |
Arrival
| Time | 2026-04-30 20:46 |
|---|---|
| Airport | Ontario International Airport (KONT) |
| Time | Latitude | Longitude | Altitude | Speed | Heading |
|---|---|---|---|---|---|
| 2026-04-30 19:57 | 36.08122 | -115.14612 | 2120 ft | 0 kts | 254° |
| 2026-04-30 19:59 | 36.08123 | -115.14611 | 2120 ft | 1 kts | 254° |
| 2026-04-30 20:00 | 36.08127 | -115.14594 | 2120 ft | 3 kts | 251° |
| 2026-04-30 20:00 | 36.08134 | -115.14571 | 2120 ft | 3 kts | 242° |
| 2026-04-30 20:00 | 36.08145 | -115.14551 | 2117 ft | 3 kts | 223° |
| 2026-04-30 20:00 | 36.08159 | -115.14540 | 2117 ft | 3 kts | 177° |
| 2026-04-30 20:01 | 36.08167 | -115.14542 | 2117 ft | 1 kts | 155° |
| 2026-04-30 20:03 | 36.08166 | -115.14541 | 2117 ft | 1 kts | 155° |
| 2026-04-30 20:03 | 36.08154 | -115.14535 | 2117 ft | 4 kts | 156° |
| 2026-04-30 20:03 | 36.08108 | -115.14510 | 2112 ft | 11 kts | 156° |
| 2026-04-30 20:03 | 36.08005 | -115.14485 | 2117 ft | 19 kts | 181° |
| 2026-04-30 20:04 | 36.07872 | -115.14493 | 2121 ft | 16 kts | 202° |
| 2026-04-30 20:04 | 36.07843 | -115.14608 | 2129 ft | 15 kts | 275° |
| 2026-04-30 20:04 | 36.07852 | -115.14722 | 2132 ft | 12 kts | 276° |
| 2026-04-30 20:05 | 36.07863 | -115.14895 | 2142 ft | 12 kts | 273° |
| 2026-04-30 20:05 | 36.07871 | -115.15015 | 2146 ft | 17 kts | 275° |
| 2026-04-30 20:05 | 36.07876 | -115.15348 | 2160 ft | 14 kts | 268° |
| 2026-04-30 20:06 | 36.07874 | -115.15465 | 2162 ft | 14 kts | 270° |
| 2026-04-30 20:06 | 36.07875 | -115.15630 | 2160 ft | 25 kts | 270° |
| 2026-04-30 20:06 | 36.07875 | -115.15842 | 2165 ft | 25 kts | 270° |
| 2026-04-30 20:06 | 36.07875 | -115.16056 | 2168 ft | 25 kts | 269° |
| 2026-04-30 20:07 | 36.07869 | -115.16259 | 2166 ft | 21 kts | 253° |
| 2026-04-30 20:07 | 36.07778 | -115.16325 | 2174 ft | 15 kts | 198° |
| 2026-04-30 20:07 | 36.07533 | -115.16456 | 2170 ft | 23 kts | 207° |
| 2026-04-30 20:08 | 36.07426 | -115.16523 | 2180 ft | 13 kts | 207° |
| 2026-04-30 20:08 | 36.07398 | -115.16635 | 2168 ft | 20 kts | 289° |
| 2026-04-30 20:08 | 36.07461 | -115.16808 | 2174 ft | 22 kts | 295° |
| 2026-04-30 20:08 | 36.07504 | -115.16919 | 2184 ft | 0 kts | 293° |
| 2026-04-30 20:11 | 36.07510 | -115.16938 | 2185 ft | 6 kts | 293° |
| 2026-04-30 20:11 | 36.07540 | -115.17011 | 2187 ft | 12 kts | 316° |
| 2026-04-30 20:12 | 36.07642 | -115.16975 | 2184 ft | 0 kts | 27° |
| 2026-04-30 20:12 | 36.07774 | -115.16896 | 2190 ft | 52 kts | 24° |
| 2026-04-30 20:12 | 36.08295 | -115.16601 | 2170 ft | 111 kts | 25° |
| 2026-04-30 20:13 | 36.09148 | -115.16114 | 2138 ft | 158 kts | 25° |
| 2026-04-30 20:13 | 36.10239 | -115.15481 | 2300 ft | 182 kts | 25° |
| 2026-04-30 20:13 | 36.11383 | -115.14817 | 2892 ft | 181 kts | 25° |
| 2026-04-30 20:13 | 36.12596 | -115.14526 | 3608 ft | 183 kts | 355° |
| 2026-04-30 20:14 | 36.13792 | -115.15362 | 4097 ft | 218 kts | 312° |
| 2026-04-30 20:14 | 36.14358 | -115.17183 | 4831 ft | 240 kts | 277° |
| 2026-04-30 20:14 | 36.14101 | -115.19291 | 5491 ft | 261 kts | 245° |
| 2026-04-30 20:14 | 36.13243 | -115.21350 | 6196 ft | 277 kts | 246° |
| 2026-04-30 20:15 | 36.12449 | -115.23595 | 6829 ft | 293 kts | 249° |
| 2026-04-30 20:15 | 36.11733 | -115.25905 | 7837 ft | 290 kts | 252° |
| 2026-04-30 20:15 | 36.10810 | -115.28176 | 8778 ft | 296 kts | 231° |
| 2026-04-30 20:15 | 36.09215 | -115.29720 | 9752 ft | 301 kts | 207° |
| 2026-04-30 20:16 | 36.07252 | -115.30694 | 10480 ft | 311 kts | 202° |
| 2026-04-30 20:16 | 36.05166 | -115.31711 | 10968 ft | 331 kts | 202° |
| 2026-04-30 20:16 | 36.02978 | -115.32767 | 11573 ft | 344 kts | 202° |
| 2026-04-30 20:16 | 36.00729 | -115.33861 | 12403 ft | 349 kts | 203° |
| 2026-04-30 20:17 | 35.98461 | -115.34956 | 13347 ft | 352 kts | 203° |
| 2026-04-30 20:17 | 35.96161 | -115.36061 | 14231 ft | 356 kts | 203° |
| 2026-04-30 20:17 | 35.93833 | -115.37176 | 15055 ft | 361 kts | 202° |
| 2026-04-30 20:17 | 35.91358 | -115.37829 | 15884 ft | 368 kts | 184° |
| 2026-04-30 20:18 | 35.88774 | -115.37894 | 16705 ft | 374 kts | 183° |
| 2026-04-30 20:18 | 35.86185 | -115.37975 | 17470 ft | 379 kts | 183° |
| 2026-04-30 20:18 | 35.83536 | -115.38058 | 18263 ft | 383 kts | 183° |
| 2026-04-30 20:18 | 35.80850 | -115.38144 | 18912 ft | 388 kts | 183° |
| 2026-04-30 20:19 | 35.78131 | -115.38232 | 19560 ft | 393 kts | 183° |
| 2026-04-30 20:19 | 35.76275 | -115.38291 | 19996 ft | 396 kts | 183° |
| 2026-04-30 20:19 | 35.72598 | -115.38410 | 20843 ft | 402 kts | 182° |
| 2026-04-30 20:19 | 35.69787 | -115.38501 | 21474 ft | 407 kts | 182° |
| 2026-04-30 20:20 | 35.66941 | -115.38593 | 22082 ft | 412 kts | 182° |
| 2026-04-30 20:20 | 35.64064 | -115.38789 | 22669 ft | 416 kts | 190° |
| 2026-04-30 20:20 | 35.61298 | -115.39863 | 23284 ft | 416 kts | 209° |
| 2026-04-30 20:20 | 35.58896 | -115.41857 | 23619 ft | 419 kts | 225° |
| 2026-04-30 20:21 | 35.56889 | -115.44381 | 23780 ft | 417 kts | 229° |
| 2026-04-30 20:21 | 35.54896 | -115.46990 | 23909 ft | 422 kts | 230° |
| 2026-04-30 20:21 | 35.52873 | -115.49677 | 23910 ft | 436 kts | 230° |
| 2026-04-30 20:21 | 35.50804 | -115.52449 | 23911 ft | 443 kts | 230° |
| 2026-04-30 20:22 | 35.48720 | -115.55251 | 23923 ft | 445 kts | 230° |
| 2026-04-30 20:22 | 35.46631 | -115.58065 | 23941 ft | 446 kts | 230° |
| 2026-04-30 20:22 | 35.44515 | -115.60914 | 23937 ft | 457 kts | 230° |
| 2026-04-30 20:22 | 35.42351 | -115.63825 | 23931 ft | 468 kts | 230° |
| 2026-04-30 20:23 | 35.40131 | -115.66808 | 23924 ft | 477 kts | 230° |
| 2026-04-30 20:23 | 35.37878 | -115.69835 | 23921 ft | 483 kts | 230° |
| 2026-04-30 20:23 | 35.35606 | -115.72884 | 23919 ft | 485 kts | 230° |
| 2026-04-30 20:23 | 35.33328 | -115.75930 | 23918 ft | 485 kts | 230° |
| 2026-04-30 20:24 | 35.31045 | -115.78979 | 23912 ft | 485 kts | 230° |
| 2026-04-30 20:24 | 35.28767 | -115.82022 | 23904 ft | 485 kts | 230° |
| 2026-04-30 20:24 | 35.26513 | -115.85029 | 23902 ft | 485 kts | 230° |
| 2026-04-30 20:24 | 35.24223 | -115.88079 | 23899 ft | 485 kts | 230° |
| 2026-04-30 20:25 | 35.19645 | -115.94167 | 23888 ft | 486 kts | 229° |
| 2026-04-30 20:25 | 35.17359 | -115.97204 | 23881 ft | 486 kts | 229° |
| 2026-04-30 20:26 | 35.12780 | -116.03277 | 23879 ft | 486 kts | 229° |
| 2026-04-30 20:26 | 35.08197 | -116.09343 | 23878 ft | 486 kts | 229° |
| 2026-04-30 20:26 | 35.05906 | -116.12372 | 23873 ft | 486 kts | 229° |
| 2026-04-30 20:27 | 35.01342 | -116.18399 | 23875 ft | 486 kts | 229° |
| 2026-04-30 20:27 | 34.96444 | -116.24093 | 23751 ft | 486 kts | 224° |
| 2026-04-30 20:28 | 34.91528 | -116.29668 | 22530 ft | 478 kts | 225° |
| 2026-04-30 20:28 | 34.86758 | -116.35207 | 21500 ft | 469 kts | 226° |
| 2026-04-30 20:29 | 34.82115 | -116.40724 | 20733 ft | 464 kts | 226° |
| 2026-04-30 20:30 | 34.76705 | -116.48628 | 19695 ft | 450 kts | 236° |
| 2026-04-30 20:30 | 34.70819 | -116.58568 | 18506 ft | 431 kts | 236° |
| 2026-04-30 20:31 | 34.66179 | -116.66369 | 17344 ft | 423 kts | 236° |
| 2026-04-30 20:32 | 34.61071 | -116.74937 | 16039 ft | 411 kts | 236° |
| 2026-04-30 20:32 | 34.58235 | -116.80823 | 15137 ft | 396 kts | 243° |
| 2026-04-30 20:33 | 34.56921 | -116.83722 | 14726 ft | 389 kts | 243° |
| 2026-04-30 20:33 | 34.54296 | -116.89339 | 13906 ft | 376 kts | 237° |
| 2026-04-30 20:33 | 34.52670 | -116.91713 | 13527 ft | 356 kts | 230° |
| 2026-04-30 20:34 | 34.49522 | -116.96105 | 12858 ft | 341 kts | 230° |
| 2026-04-30 20:34 | 34.46418 | -117.00456 | 12211 ft | 339 kts | 230° |
| 2026-04-30 20:35 | 34.44750 | -117.02384 | 11866 ft | 335 kts | 214° |
| 2026-04-30 20:35 | 34.42733 | -117.03752 | 11566 ft | 329 kts | 208° |
| 2026-04-30 20:35 | 34.38844 | -117.06245 | 10963 ft | 302 kts | 207° |
| 2026-04-30 20:36 | 34.37011 | -117.07410 | 10702 ft | 296 kts | 207° |
| 2026-04-30 20:36 | 34.35188 | -117.08554 | 10417 ft | 294 kts | 207° |
| 2026-04-30 20:36 | 34.31621 | -117.10912 | 9871 ft | 292 kts | 210° |
| 2026-04-30 20:37 | 34.29877 | -117.12197 | 9535 ft | 293 kts | 211° |
| 2026-04-30 20:37 | 34.28135 | -117.13464 | 9266 ft | 291 kts | 211° |
| 2026-04-30 20:37 | 34.26395 | -117.14721 | 9012 ft | 289 kts | 211° |
| 2026-04-30 20:37 | 34.24673 | -117.15992 | 8715 ft | 291 kts | 211° |
| 2026-04-30 20:38 | 34.22941 | -117.17255 | 8458 ft | 291 kts | 212° |
| 2026-04-30 20:38 | 34.21208 | -117.18521 | 8108 ft | 291 kts | 211° |
| 2026-04-30 20:38 | 34.19552 | -117.19880 | 7906 ft | 287 kts | 222° |
| 2026-04-30 20:39 | 34.16716 | -117.23123 | 7214 ft | 277 kts | 225° |
| 2026-04-30 20:39 | 34.15375 | -117.24735 | 6896 ft | 268 kts | 226° |
| 2026-04-30 20:39 | 34.14064 | -117.26321 | 6511 ft | 264 kts | 226° |
| 2026-04-30 20:40 | 34.11586 | -117.29301 | 5948 ft | 239 kts | 226° |
| 2026-04-30 20:40 | 34.10436 | -117.30689 | 5573 ft | 232 kts | 226° |
| 2026-04-30 20:40 | 34.09304 | -117.32074 | 5269 ft | 232 kts | 226° |
| 2026-04-30 20:41 | 34.07044 | -117.34789 | 4673 ft | 227 kts | 227° |
| 2026-04-30 20:41 | 34.06049 | -117.36232 | 4309 ft | 220 kts | 246° |
| 2026-04-30 20:41 | 34.05753 | -117.37961 | 4020 ft | 202 kts | 269° |
| 2026-04-30 20:41 | 34.05709 | -117.39550 | 3797 ft | 176 kts | 269° |
| 2026-04-30 20:42 | 34.05677 | -117.40945 | 3636 ft | 162 kts | 270° |
| 2026-04-30 20:42 | 34.05681 | -117.42286 | 3455 ft | 158 kts | 270° |
| 2026-04-30 20:42 | 34.05679 | -117.44841 | 3098 ft | 149 kts | 270° |
| 2026-04-30 20:43 | 34.05691 | -117.46080 | 2903 ft | 147 kts | 269° |
| 2026-04-30 20:43 | 34.05677 | -117.47317 | 2723 ft | 147 kts | 267° |
| 2026-04-30 20:43 | 34.05680 | -117.48553 | 2543 ft | 146 kts | 268° |
| 2026-04-30 20:44 | 34.05686 | -117.50992 | 2162 ft | 146 kts | 269° |
| 2026-04-30 20:44 | 34.05689 | -117.52198 | 1949 ft | 148 kts | 268° |
| 2026-04-30 20:44 | 34.05705 | -117.54733 | 1594 ft | 144 kts | 269° |
| 2026-04-30 20:45 | 34.05684 | -117.57060 | 1163 ft | 135 kts | 270° |
| 2026-04-30 20:45 | 34.05685 | -117.58168 | 997 ft | 129 kts | 270° |
| 2026-04-30 20:45 | 34.05689 | -117.59138 | 942 ft | 88 kts | 270° |
| 2026-04-30 20:46 | 34.05773 | -117.59993 | 943 ft | 3 kts | 9° |
| 2026-04-30 20:46 | 34.05812 | -117.59987 | 943 ft | 8 kts | 6° |
| 2026-04-30 20:47 | 34.05899 | -117.59936 | 942 ft | 2 kts | 67° |
| 2026-04-30 20:47 | 34.05930 | -117.59915 | 942 ft | 7 kts | 2° |
| 2026-04-30 20:48 | 34.05986 | -117.59917 | 945 ft | 2 kts | 3° |
| 2026-04-30 20:48 | 34.05988 | -117.59917 | 945 ft | 0 kts | 4° |